Time;durP1;ratioP1;P1;durP2;ratioP2;P2;SDS_P1;SDS_P2;PMS_P1;PMS_P2;Temp;Humidity;BMP_temperature;BMP_pressure;BME280_temperature;BME280_humidity;BME280_pressure;Samples;Min_cycle;Max_cycle;Signal;HPM_P1;HPM_P2
2022/08/17 00:06:52;;;;;;;11.93;8.48;;;;;;;18.92;100.00;99665.09;20831528;28;20057;-71
2022/08/17 00:16:54;;;;;;;9.70;8.27;;;;;;;18.94;100.00;99663.19;20844481;28;20050;-71
2022/08/17 00:26:58;;;;;;;10.87;8.23;;;;;;;18.82;100.00;99676.34;20844188;28;20111;-71
2022/08/17 00:36:59;;;;;;;11.20;8.48;;;;;;;18.86;100.00;99664.59;20842245;28;20439;-71
2022/08/17 00:47:01;;;;;;;12.05;7.72;;;;;;;18.68;100.00;99670.09;20842621;28;20095;-71
2022/08/17 00:57:02;;;;;;;13.35;8.73;;;;;;;18.54;100.00;99674.47;20842406;28;20417;-71
2022/08/17 01:07:03;;;;;;;12.23;8.95;;;;;;;18.43;100.00;99667.16;20841665;28;20060;-72
2022/08/17 01:17:05;;;;;;;10.55;8.20;;;;;;;18.19;100.00;99654.44;20835629;28;20513;-73
2022/08/17 01:27:06;;;;;;;10.38;8.48;;;;;;;18.36;100.00;99655.25;20828553;28;20049;-72
2022/08/17 01:37:10;;;;;;;12.20;8.38;;;;;;;18.45;100.00;99654.69;20825838;28;20081;-73
2022/08/17 01:47:12;;;;;;;12.18;8.35;;;;;;;18.19;100.00;99659.72;20827276;28;20054;-72
2022/08/17 01:57:13;;;;;;;13.95;8.25;;;;;;;18.30;100.00;99663.53;20826388;28;20698;-73
2022/08/17 02:07:16;;;;;;;12.20;8.35;;;;;;;18.33;100.00;99660.72;20825271;28;20107;-72
2022/08/17 02:17:17;;;;;;;12.98;7.78;;;;;;;18.14;100.00;99656.50;20824739;28;20097;-71
2022/08/17 02:27:19;;;;;;;12.25;8.70;;;;;;;18.07;100.00;99655.16;20823025;28;20140;-71
2022/08/17 02:37:20;;;;;;;8.70;7.05;;;;;;;18.39;100.00;99644.44;20821416;28;20053;-72
2022/08/17 02:47:21;;;;;;;11.18;7.70;;;;;;;18.63;100.00;99645.59;20822213;28;20058;-71
2022/08/17 02:57:23;;;;;;;9.18;7.47;;;;;;;18.59;100.00;99653.84;20821676;28;20053;-71
2022/08/17 03:07:24;;;;;;;11.38;7.85;;;;;;;18.50;100.00;99657.91;20820079;28;20379;-72
2022/08/17 03:17:25;;;;;;;12.25;7.75;;;;;;;18.70;100.00;99713.28;20819717;28;20057;-71
2022/08/17 03:27:27;;;;;;;12.40;7.07;;;;;;;18.74;100.00;99713.09;20818985;28;20057;-71
2022/08/17 03:37:28;;;;;;;10.43;7.13;;;;;;;18.79;100.00;99732.25;20817110;28;20490;-71
2022/08/17 03:57:49;;;;;;;8.68;6.95;;;;;;;18.78;100.00;99727.84;20817620;28;20053;-71
2022/08/17 04:07:53;;;;;;;9.18;6.50;;;;;;;18.91;100.00;99726.19;20816285;28;20060;-72
2022/08/17 04:17:54;;;;;;;10.57;7.05;;;;;;;19.01;100.00;99727.31;20816682;28;20050;-71
2022/08/17 04:27:55;;;;;;;11.20;6.90;;;;;;;19.04;100.00;99755.47;20816593;28;20482;-72
2022/08/17 04:37:57;;;;;;;14.13;8.63;;;;;;;18.99;100.00;99755.75;20815013;28;20112;-71
2022/08/17 04:47:58;;;;;;;10.82;7.82;;;;;;;19.04;100.00;99758.97;20816149;28;20057;-70
2022/08/17 04:58:00;;;;;;;12.20;8.20;;;;;;;19.10;100.00;99765.72;20829540;28;20076;-71
2022/08/17 05:08:01;;;;;;;11.95;7.95;;;;;;;19.33;100.00;99775.78;20830057;28;20087;-71
2022/08/17 05:18:02;;;;;;;10.48;7.70;;;;;;;19.75;100.00;99759.94;20829528;28;20072;-71
2022/08/17 05:28:04;;;;;;;10.27;7.30;;;;;;;20.04;100.00;99766.88;20828313;28;20049;-71
2022/08/17 05:38:07;;;;;;;14.38;8.18;;;;;;;20.19;100.00;99749.91;20826738;28;20469;-72
2022/08/17 05:48:09;;;;;;;10.50;7.32;;;;;;;20.24;100.00;99760.25;20826990;28;20441;-71
2022/08/17 05:58:10;;;;;;;9.45;7.35;;;;;;;20.37;100.00;99762.97;20826120;28;20398;-71
2022/08/17 06:08:11;;;;;;;12.75;7.32;;;;;;;20.40;100.00;99742.31;20824549;28;20065;-72
2022/08/17 06:18:13;;;;;;;10.68;8.05;;;;;;;20.59;98.81;99775.69;20824776;28;20417;-69
2022/08/17 06:28:19;;;;;;;9.52;8.23;;;;;;;20.44;100.00;99753.59;20823952;28;20053;-70
2022/08/17 06:38:20;;;;;;;10.57;9.07;;;;;;;20.64;100.00;99750.50;20821199;28;20582;-70
2022/08/17 06:48:38;;;;;;;11.82;8.73;;;;;;;20.61;100.00;99781.78;20821839;28;20057;-70
2022/08/17 06:58:40;;;;;;;10.38;8.75;;;;;;;20.63;100.00;99780.72;20821260;28;20053;-70
2022/08/17 07:08:42;;;;;;;13.15;8.73;;;;;;;20.42;100.00;99760.84;20843351;28;20049;-69
2022/08/17 07:18:43;;;;;;;15.00;9.32;;;;;;;20.38;100.00;99764.66;20853002;28;20434;-69
2022/08/17 07:28:45;;;;;;;11.30;8.60;;;;;;;20.59;100.00;99781.88;20823639;28;20406;-69
2022/08/17 07:38:47;;;;;;;13.30;9.75;;;;;;;20.63;100.00;99763.91;20821705;28;20049;-69
2022/08/17 07:48:48;;;;;;;13.40;10.80;;;;;;;20.73;100.00;99784.44;20840296;28;20486;-72
2022/08/17 07:58:50;;;;;;;15.57;11.27;;;;;;;20.70;100.00;99776.69;20881803;28;20052;-72
2022/08/17 08:08:51;;;;;;;11.77;10.20;;;;;;;20.93;100.00;99779.56;20855866;28;20478;-73
2022/08/17 08:18:52;;;;;;;12.88;11.05;;;;;;;21.01;100.00;99770.13;20879596;28;20049;-75
2022/08/17 08:28:59;;;;;;;15.82;11.80;;;;;;;20.90;100.00;99771.81;20909518;28;20558;-75
2022/08/17 08:39:00;;;;;;;14.50;10.47;;;;;;;20.62;100.00;99738.25;20913286;28;20060;-73
2022/08/17 08:49:02;;;;;;;15.18;10.38;;;;;;;20.36;100.00;99820.63;20879397;28;20619;-73
2022/08/17 08:59:12;;;;;;;14.70;9.98;;;;;;;20.33;100.00;99830.59;19944335;28;10000959;-71
2022/08/17 09:09:14;;;;;;;13.15;9.93;;;;;;;20.55;100.00;99827.38;20793792;28;20505;-72
2022/08/17 09:19:15;;;;;;;12.35;10.27;;;;;;;20.69;100.00;99841.47;20810592;28;20042;-68
2022/08/17 09:29:16;;;;;;;18.45;12.45;;;;;;;20.52;100.00;99856.88;20803513;28;20048;-69
2022/08/17 09:39:17;;;;;;;13.85;12.23;;;;;;;20.55;100.00;99838.88;19927399;28;10000529;-68
2022/08/17 09:49:19;;;;;;;19.70;11.60;;;;;;;20.83;100.00;99898.25;20811862;28;20545;-69
2022/08/17 09:59:26;;;;;;;14.70;10.38;;;;;;;21.13;100.00;99912.19;20814327;28;20058;-69
2022/08/17 10:09:37;;;;;;;11.55;9.48;;;;;;;21.44;100.00;99920.78;20805810;28;20045;-69
2022/08/17 10:19:38;;;;;;;10.35;8.88;;;;;;;21.94;100.00;99924.41;20804973;28;20072;-69
2022/08/17 10:29:44;;;;;;;9.00;7.40;;;;;;;22.81;100.00;99935.97;20808718;28;20073;-69
2022/08/17 10:39:50;;;;;;;8.73;6.45;;;;;;;23.10;97.48;99948.03;20807936;28;20079;-68
2022/08/17 10:49:54;;;;;;;9.70;6.65;;;;;;;23.42;95.55;99942.06;20803325;28;20054;-69
2022/08/17 10:59:56;;;;;;;9.30;7.00;;;;;;;23.21;98.41;99942.72;20810075;28;20133;-69
2022/08/17 11:09:57;;;;;;;12.50;7.80;;;;;;;23.20;99.77;99942.84;20806431;28;20049;-69
2022/08/17 11:19:58;;;;;;;9.48;7.25;;;;;;;23.80;95.55;99949.81;20805506;28;20049;-69
2022/08/17 11:30:00;;;;;;;11.40;6.18;;;;;;;24.25;90.74;99934.66;20819759;28;20045;-69
2022/08/17 11:40:04;;;;;;;8.25;5.57;;;;;;;24.04;81.96;99925.66;20812252;28;20521;-70
2022/08/17 12:00:28;;;;;;;9.10;5.07;;;;;;;24.41;83.00;99877.25;20805761;28;20132;-70
2022/08/17 12:10:33;;;;;;;6.88;5.03;;;;;;;24.57;79.88;99842.88;20802721;28;20482;-70
2022/08/17 12:20:34;;;;;;;8.68;5.50;;;;;;;24.14;81.36;99848.19;20806860;28;20045;-71
2022/08/17 12:30:35;;;;;;;8.60;5.50;;;;;;;24.08;88.00;99883.47;20802188;28;20049;-70
2022/08/17 12:40:37;;;;;;;7.35;5.28;;;;;;;24.70;79.48;99886.41;20802020;28;20045;-70
2022/08/17 12:50:38;;;;;;;7.38;4.90;;;;;;;25.72;76.73;99871.50;20801985;28;20053;-68
2022/08/17 13:00:40;;;;;;;7.05;4.63;;;;;;;25.78;61.71;99860.28;20803687;28;20049;-69
2022/08/17 13:10:47;;;;;;;5.65;4.30;;;;;;;26.01;59.96;99844.81;20802251;28;20144;-69
2022/08/17 13:20:52;;;;;;;;;;;;;;;26.38;56.90;99838.84;20815739;28;20041;-70
2022/08/17 13:30:54;;;;;;;6.38;4.22;;;;;;;26.10;57.82;99832.41;20813682;28;19932;-69
2022/08/17 13:40:55;;;;;;;6.43;4.40;;;;;;;26.42;54.61;99807.19;20814497;28;20065;-70
2022/08/17 13:50:56;;;;;;;5.63;4.00;;;;;;;26.66;53.70;99796.06;20813653;28;20045;-71
2022/08/17 14:01:02;;;;;;;6.38;4.10;;;;;;;26.89;51.33;99772.44;20814655;28;20084;-70
2022/08/17 14:11:12;;;;;;;5.93;4.50;;;;;;;27.38;48.63;99770.50;20811810;28;20045;-69
2022/08/17 14:21:14;;;;;;;8.05;4.10;;;;;;;27.06;48.87;99750.19;20808328;28;20593;-70
2022/08/17 14:31:15;;;;;;;6.50;4.10;;;;;;;27.27;47.94;99748.19;20809739;28;20507;-69
2022/08/17 14:41:16;;;;;;;6.13;4.00;;;;;;;27.33;47.56;99750.28;20809105;28;20060;-70
2022/08/17 14:51:22;;;;;;;7.70;4.32;;;;;;;27.19;48.61;99750.75;20807922;28;20053;-70
2022/08/17 15:01:23;;;;;;;5.82;4.30;;;;;;;26.98;48.10;99750.94;20804145;28;20277;-70
2022/08/17 15:11:25;;;;;;;7.78;4.20;;;;;;;27.33;45.37;99746.75;20805789;28;20057;-70
2022/08/17 15:21:26;;;;;;;6.63;4.40;;;;;;;27.67;43.19;99733.56;20801974;28;20050;-70
2022/08/17 15:31:28;;;;;;;5.97;4.20;;;;;;;27.79;43.19;99732.41;20804228;28;20699;-69
2022/08/17 15:41:32;;;;;;;6.20;4.47;;;;;;;28.09;42.19;99731.22;20798110;28;20053;-70
2022/08/17 15:51:34;;;;;;;6.28;4.10;;;;;;;27.91;43.34;99727.66;20833228;23;20405;-78
2022/08/17 16:01:35;;;;;;;5.25;3.90;;;;;;;27.93;41.70;99725.66;20861390;28;20068;-79
2022/08/17 16:22:42;;;;;;;5.72;4.00;;;;;;;27.66;44.09;99726.50;20827633;28;20061;-77
2022/08/17 16:32:44;;;;;;;5.07;3.80;;;;;;;27.45;45.26;99734.78;20818368;28;20045;-77
2022/08/17 16:42:47;;;;;;;6.55;4.28;;;;;;;27.31;45.43;99733.47;20824525;28;20059;-79
2022/08/17 16:52:48;;;;;;;9.50;4.50;;;;;;;27.14;46.88;99709.19;20830501;28;20045;-78
2022/08/17 17:03:05;;;;;;;6.72;4.35;;;;;;;26.67;47.62;99688.50;20836018;28;20051;-78
2022/08/17 17:13:20;;;;;;;8.85;4.88;;;;;;;26.55;50.22;99703.94;20839980;28;20037;-78
2022/08/17 17:23:21;;;;;;;7.32;4.72;;;;;;;26.35;51.38;99694.19;20833720;28;20053;-77
2022/08/17 17:33:22;;;;;;;7.55;4.95;;;;;;;26.10;53.99;99692.91;20843491;28;20052;-77
2022/08/17 17:43:24;;;;;;;7.75;4.93;;;;;;;25.83;53.34;99678.34;20833770;28;20053;-77
2022/08/17 17:53:40;;;;;;;7.72;4.53;;;;;;;25.70;55.50;99680.41;20853498;23;20148;-68
2022/08/17 18:03:43;;;;;;;5.63;4.30;;;;;;;25.24;57.23;99684.50;20810975;28;20045;-68
2022/08/17 18:13:45;;;;;;;8.60;5.35;;;;;;;25.02;58.82;99684.69;20821224;28;20831;-68
2022/08/17 18:23:49;;;;;;;8.55;5.93;;;;;;;24.77;62.41;99689.47;20810464;28;20050;-67
2022/08/17 18:33:51;;;;;;;10.67;6.10;;;;;;;24.68;62.33;99698.31;20808452;28;20060;-67
2022/08/17 18:43:52;;;;;;;8.68;5.72;;;;;;;24.24;64.89;99705.56;20808213;28;20054;-67
2022/08/17 18:53:54;;;;;;;9.73;5.55;;;;;;;24.01;66.42;99706.63;20810380;28;20050;-67
2022/08/17 19:03:57;;;;;;;9.57;6.10;;;;;;;23.77;68.41;99733.53;20805962;28;20500;-66
2022/08/17 19:13:59;;;;;;;8.00;5.80;;;;;;;23.64;69.84;99746.19;20804665;28;20049;-67
2022/08/17 19:24:01;;;;;;;7.80;5.18;;;;;;;23.38;71.73;99742.88;20806015;28;20057;-67
2022/08/17 19:34:02;;;;;;;8.90;5.50;;;;;;;23.12;75.33;99763.63;20804539;28;20458;-67
2022/08/17 19:44:05;;;;;;;8.55;5.97;;;;;;;22.86;74.63;99753.13;20803857;28;20505;-66
2022/08/17 19:54:07;;;;;;;8.23;5.78;;;;;;;22.60;77.41;99764.94;20805000;28;20053;-67
2022/08/17 20:04:08;;;;;;;8.63;6.35;;;;;;;22.89;70.63;99747.56;20802921;28;20041;-67
2022/08/17 20:14:09;;;;;;;7.55;5.82;;;;;;;22.91;72.85;99740.31;20799988;28;20049;-67
2022/08/17 20:24:11;;;;;;;9.82;6.40;;;;;;;22.61;78.15;99762.16;20810394;28;20083;-67
2022/08/17 20:34:12;;;;;;;9.25;6.28;;;;;;;22.39;80.73;99770.09;20820632;28;20084;-67
2022/08/17 20:44:13;;;;;;;16.40;6.45;;;;;;;22.35;82.90;99768.59;20824889;28;20052;-67
2022/08/17 20:54:15;;;;;;;11.13;6.43;;;;;;;22.48;83.20;99774.72;20848322;28;20049;-68
2022/08/17 21:04:16;;;;;;;10.40;6.50;;;;;;;22.36;85.91;99780.97;20905930;28;20059;-67
2022/08/17 21:14:17;;;;;;;16.33;6.53;;;;;;;22.24;86.98;99780.94;20905234;28;20052;-67
2022/08/17 21:24:19;;;;;;;11.30;6.40;;;;;;;22.18;87.67;99796.50;20902943;28;20444;-67
2022/08/17 21:34:21;;;;;;;12.60;6.70;;;;;;;22.09;89.88;99830.03;20900478;28;20095;-68
2022/08/17 21:44:23;;;;;;;9.48;6.68;;;;;;;22.09;89.30;99843.34;20902232;28;20053;-67
2022/08/17 21:54:32;;;;;;;10.05;6.70;;;;;;;22.14;86.34;99841.25;20875711;28;20049;-67
2022/08/17 22:04:34;;;;;;;9.98;6.10;;;;;;;22.19;84.52;99863.09;20779510;28;20461;-67
2022/08/17 22:14:35;;;;;;;10.77;6.15;;;;;;;22.39;83.09;99871.44;20806377;28;20403;-67
2022/08/17 22:24:55;;;;;;;8.30;5.60;;;;;;;22.36;84.21;99891.19;20824640;28;20049;-67
2022/08/17 22:34:57;;;;;;;7.95;5.70;;;;;;;22.44;85.23;99936.00;20823956;28;20131;-67
2022/08/17 22:44:59;;;;;;;6.25;4.75;;;;;;;22.56;84.86;99955.56;20823948;28;20493;-67
2022/08/17 23:05:20;;;;;;;7.82;4.75;;;;;;;22.20;94.89;99989.28;20821082;28;20063;-66
2022/08/17 23:15:23;;;;;;;8.05;4.72;;;;;;;21.70;100.00;99991.81;20820332;28;20056;-67
2022/08/17 23:25:24;;;;;;;8.52;4.82;;;;;;;21.37;97.29;99986.94;20819388;28;20148;-67
2022/08/17 23:35:26;;;;;;;7.50;5.18;;;;;;;21.35;99.47;99975.53;20818526;28;20053;-70
2022/08/17 23:45:40;;;;;;;8.48;5.15;;;;;;;20.92;100.00;99966.84;20817216;28;20534;-69
2022/08/17 23:55:42;;;;;;;6.50;4.97;;;;;;;20.66;100.00;99966.72;20816634;28;20453;-69
